createdAt,value
2019-05-26T00:02:11.046Z,15.10
2019-05-26T00:04:37.314Z,15.00
2019-05-26T00:07:04.135Z,15.00
2019-05-26T00:09:30.413Z,15.00
2019-05-26T00:11:56.683Z,15.00
2019-05-26T00:14:23.126Z,14.90
2019-05-26T00:16:49.302Z,14.90
2019-05-26T00:19:15.483Z,14.90
2019-05-26T00:21:41.690Z,14.90
2019-05-26T00:24:07.866Z,14.90
2019-05-26T00:26:34.037Z,14.80
2019-05-26T00:29:00.238Z,14.80
2019-05-26T00:31:26.426Z,14.70
2019-05-26T00:33:52.614Z,14.70
2019-05-26T00:36:18.823Z,14.70
2019-05-26T00:38:44.998Z,14.60
2019-05-26T00:41:11.166Z,14.60
2019-05-26T00:43:37.358Z,14.60
2019-05-26T00:46:04.932Z,14.60
2019-05-26T00:48:31.115Z,14.60
2019-05-26T00:50:57.334Z,14.50
2019-05-26T00:53:23.806Z,14.40
2019-05-26T00:55:49.974Z,14.40
2019-05-26T00:58:16.203Z,14.40
2019-05-26T01:00:42.887Z,14.40
2019-05-26T01:03:09.754Z,14.40
2019-05-26T01:05:36.274Z,14.40
2019-05-26T01:08:06.658Z,14.40
2019-05-26T01:10:32.535Z,14.40
2019-05-26T01:12:58.742Z,14.30
2019-05-26T01:15:25.015Z,14.30
2019-05-26T01:17:51.178Z,14.20
2019-05-26T01:20:17.538Z,14.20
2019-05-26T01:22:43.770Z,14.20
2019-05-26T01:25:10.350Z,14.10
2019-05-26T01:27:36.556Z,14.00
2019-05-26T01:30:06.243Z,14.10
2019-05-26T01:32:32.421Z,14.00
2019-05-26T01:34:58.627Z,14.10
2019-05-26T01:37:24.798Z,14.00
2019-05-26T01:39:50.976Z,14.00
2019-05-26T01:42:17.378Z,14.00
2019-05-26T01:44:43.559Z,14.10
2019-05-26T01:47:10.038Z,14.00
2019-05-26T01:49:36.231Z,14.00
2019-05-26T01:52:02.470Z,14.00
2019-05-26T01:54:28.670Z,14.00
2019-05-26T01:56:54.934Z,14.00
2019-05-26T01:59:21.070Z,14.00
2019-05-26T02:01:47.234Z,14.00
2019-05-26T02:04:13.430Z,14.00
2019-05-26T02:06:39.862Z,14.10
2019-05-26T02:09:07.135Z,14.00
2019-05-26T02:11:33.384Z,14.00
2019-05-26T02:13:59.719Z,13.90
2019-05-26T02:16:25.980Z,14.00
2019-05-26T02:18:52.323Z,14.00
2019-05-26T02:21:18.504Z,13.90
2019-05-26T02:23:44.674Z,13.80
2019-05-26T02:26:10.908Z,13.80
2019-05-26T02:28:37.074Z,13.70
2019-05-26T02:31:03.255Z,13.70
2019-05-26T02:33:29.452Z,13.70
2019-05-26T02:35:55.632Z,13.60
2019-05-26T02:38:26.119Z,13.60
2019-05-26T02:40:50.011Z,13.50
2019-05-26T02:43:16.293Z,13.50
2019-05-26T02:45:42.465Z,13.50
2019-05-26T02:48:09.411Z,13.40
2019-05-26T02:50:36.051Z,13.40
2019-05-26T02:53:02.269Z,13.50
2019-05-26T02:55:28.619Z,13.40
2019-05-26T02:57:54.803Z,13.40
2019-05-26T03:00:24.797Z,13.40
2019-05-26T03:02:51.084Z,13.30
2019-05-26T03:05:17.275Z,13.30
2019-05-26T03:07:43.449Z,13.30
2019-05-26T03:10:11.478Z,13.30
2019-05-26T03:12:40.157Z,13.30
2019-05-26T03:15:06.837Z,13.30
2019-05-26T03:17:33.235Z,13.40
2019-05-26T03:19:59.708Z,13.40
2019-05-26T03:22:26.882Z,13.50
2019-05-26T03:24:53.594Z,13.50
2019-05-26T03:27:20.868Z,13.60
2019-05-26T03:29:47.038Z,13.60
2019-05-26T03:32:13.268Z,13.60
2019-05-26T03:34:39.457Z,13.70
2019-05-26T03:37:05.615Z,13.70
2019-05-26T03:39:44.357Z,13.60
2019-05-26T03:42:00.037Z,13.60
2019-05-26T03:44:26.197Z,13.60
2019-05-26T03:46:52.399Z,13.60
2019-05-26T03:49:19.254Z,13.70
2019-05-26T03:51:45.428Z,13.70
2019-05-26T03:54:11.641Z,13.70
2019-05-26T03:56:37.827Z,13.80
2019-05-26T03:59:04.097Z,13.70
2019-05-26T04:01:30.292Z,13.80
2019-05-26T04:03:56.466Z,13.80
2019-05-26T04:06:22.653Z,13.70
2019-05-26T04:08:48.944Z,13.70
2019-05-26T04:11:15.120Z,13.80
2019-05-26T04:13:41.299Z,13.80
2019-05-26T04:16:07.505Z,13.80
2019-05-26T04:18:33.680Z,13.80
2019-05-26T04:21:00.048Z,13.90
2019-05-26T04:23:26.438Z,13.90
2019-05-26T04:25:52.686Z,13.90
2019-05-26T04:28:18.846Z,13.90
2019-05-26T04:30:45.056Z,14.00
2019-05-26T04:33:11.214Z,14.00
2019-05-26T04:35:37.398Z,14.00
2019-05-26T04:38:03.604Z,14.10
2019-05-26T04:40:29.775Z,14.10
2019-05-26T04:42:55.960Z,14.10
2019-05-26T04:45:22.155Z,14.20
2019-05-26T04:47:48.395Z,14.30
2019-05-26T04:50:15.300Z,14.30
2019-05-26T04:52:41.564Z,14.30
2019-05-26T04:55:07.947Z,14.30
2019-05-26T04:57:34.111Z,14.40
2019-05-26T05:00:00.319Z,14.40
2019-05-26T05:02:26.506Z,14.50
2019-05-26T05:04:52.673Z,14.60
2019-05-26T05:07:18.874Z,14.70
2019-05-26T05:09:45.164Z,14.70
2019-05-26T05:12:11.330Z,14.70
2019-05-26T05:14:37.533Z,14.70
2019-05-26T05:17:03.708Z,14.90
2019-05-26T05:19:29.879Z,15.00
2019-05-26T05:21:56.233Z,15.10
2019-05-26T05:24:22.484Z,15.20
2019-05-26T05:26:48.867Z,15.30
2019-05-26T05:29:16.075Z,15.20
2019-05-26T05:31:42.250Z,15.30
2019-05-26T05:34:08.434Z,15.30
2019-05-26T05:36:34.745Z,15.40
2019-05-26T05:39:00.927Z,15.60
2019-05-26T05:41:27.098Z,15.70
2019-05-26T05:43:53.590Z,15.60
2019-05-26T05:46:19.766Z,15.60
2019-05-26T05:48:45.940Z,15.50
2019-05-26T05:51:12.688Z,15.50
2019-05-26T05:53:38.865Z,15.50
2019-05-26T05:56:05.053Z,15.40
2019-05-26T05:58:31.242Z,15.40
2019-05-26T06:00:57.419Z,15.60
2019-05-26T06:03:23.824Z,15.60
2019-05-26T06:05:50.167Z,15.50
2019-05-26T06:08:16.334Z,15.70
2019-05-26T06:10:42.503Z,15.70
2019-05-26T06:13:08.703Z,15.90
2019-05-26T06:15:34.883Z,16.00
2019-05-26T06:18:01.059Z,16.10
2019-05-26T06:20:27.414Z,16.20
2019-05-26T06:22:53.587Z,16.20
2019-05-26T06:25:19.769Z,16.30
2019-05-26T06:27:45.951Z,16.40
2019-05-26T06:30:12.227Z,16.60
2019-05-26T06:32:38.398Z,16.70
2019-05-26T06:35:04.985Z,16.80
2019-05-26T06:37:31.182Z,16.80
2019-05-26T06:39:57.362Z,16.90
2019-05-26T06:42:23.570Z,17.00
2019-05-26T06:44:53.385Z,17.00
2019-05-26T06:47:17.739Z,17.10
2019-05-26T06:49:44.099Z,17.00
2019-05-26T06:52:10.748Z,17.10
2019-05-26T06:54:36.979Z,17.30
2019-05-26T06:57:03.186Z,17.40
2019-05-26T06:59:29.354Z,17.50
2019-05-26T07:01:55.640Z,17.60
2019-05-26T07:04:21.830Z,17.60
2019-05-26T07:06:47.998Z,17.70
2019-05-26T07:09:14.174Z,17.60
2019-05-26T07:11:53.831Z,17.70
2019-05-26T07:14:08.362Z,17.90
2019-05-26T07:16:38.425Z,17.90
2019-05-26T07:19:03.034Z,18.00
2019-05-26T07:21:29.213Z,18.20
2019-05-26T07:23:55.383Z,18.60
2019-05-26T07:26:21.577Z,18.80
2019-05-26T07:28:47.750Z,19.10
2019-05-26T07:31:13.926Z,19.20
2019-05-26T07:33:40.133Z,19.20
2019-05-26T07:36:06.323Z,19.30
2019-05-26T07:38:32.498Z,19.40
2019-05-26T07:40:59.291Z,19.40
2019-05-26T07:43:28.020Z,19.50
2019-05-26T07:45:53.448Z,19.60
2019-05-26T07:48:19.642Z,19.60
2019-05-26T07:50:45.819Z,19.60
2019-05-26T07:53:12.597Z,19.70
2019-05-26T07:55:38.786Z,20.00
2019-05-26T07:58:05.026Z,20.10
2019-05-26T08:00:31.152Z,20.20
2019-05-26T08:02:57.554Z,20.20
2019-05-26T08:05:23.738Z,19.70
2019-05-26T08:07:49.919Z,19.80
2019-05-26T08:10:16.386Z,19.80
2019-05-26T08:12:42.555Z,19.90
2019-05-26T08:15:08.731Z,20.10
2019-05-26T08:17:34.934Z,20.30
2019-05-26T08:20:02.022Z,20.40
2019-05-26T08:22:28.214Z,20.50
2019-05-26T08:24:54.404Z,20.50
2019-05-26T08:27:20.686Z,20.50
2019-05-26T08:29:46.914Z,20.50
2019-05-26T08:32:15.057Z,20.50
2019-05-26T08:34:41.127Z,20.20
2019-05-26T08:37:07.304Z,20.50
2019-05-26T08:39:33.505Z,20.70
2019-05-26T08:41:59.674Z,20.40
2019-05-26T08:44:25.967Z,20.10
2019-05-26T08:46:52.291Z,20.10
2019-05-26T08:49:19.010Z,20.10
2019-05-26T08:51:45.523Z,20.40
2019-05-26T08:54:12.225Z,20.50
2019-05-26T08:56:38.398Z,20.30
2019-05-26T08:59:04.619Z,20.30
2019-05-26T09:01:30.771Z,20.40
2019-05-26T09:03:56.952Z,20.20
2019-05-26T09:06:23.200Z,20.10
2019-05-26T09:08:49.426Z,20.30
2019-05-26T09:11:15.603Z,20.70
2019-05-26T09:13:41.783Z,20.20
2019-05-26T09:16:08.124Z,20.00
2019-05-26T09:18:34.362Z,20.40
2019-05-26T09:21:00.665Z,20.50
2019-05-26T09:23:27.019Z,20.80
2019-05-26T09:25:53.194Z,21.00
2019-05-26T09:28:19.375Z,20.50
2019-05-26T09:30:45.691Z,20.40
2019-05-26T09:33:11.965Z,19.90
2019-05-26T09:35:38.138Z,19.90
2019-05-26T09:38:04.546Z,20.60
2019-05-26T09:40:30.726Z,20.90
2019-05-26T09:42:56.899Z,21.10
2019-05-26T09:45:23.233Z,21.40
2019-05-26T09:47:49.413Z,21.30
2019-05-26T09:50:15.980Z,21.50
2019-05-26T09:52:42.352Z,21.10
2019-05-26T09:55:09.314Z,21.10
2019-05-26T09:57:35.687Z,21.10
2019-05-26T10:00:05.492Z,20.80
2019-05-26T10:02:31.661Z,20.80
2019-05-26T10:04:57.832Z,21.10
2019-05-26T10:07:24.046Z,20.70
2019-05-26T10:09:50.216Z,21.00
2019-05-26T10:12:16.495Z,21.10
2019-05-26T10:14:43.010Z,21.10
2019-05-26T10:17:09.289Z,21.20
2019-05-26T10:19:35.467Z,21.20
2019-05-26T10:22:01.666Z,21.20
2019-05-26T10:24:27.920Z,20.70
2019-05-26T10:26:54.223Z,21.00
2019-05-26T10:29:20.455Z,21.20
2019-05-26T10:31:46.631Z,21.40
2019-05-26T10:34:13.813Z,21.40
2019-05-26T10:36:40.333Z,21.50
2019-05-26T10:39:07.502Z,21.60
2019-05-26T10:41:33.687Z,21.70
2019-05-26T10:43:59.881Z,21.50
2019-05-26T10:46:26.058Z,21.30
2019-05-26T10:48:52.230Z,21.50
2019-05-26T10:51:18.430Z,21.10
2019-05-26T10:53:44.604Z,21.20
2019-05-26T10:56:12.214Z,21.30
2019-05-26T10:58:38.435Z,21.80
2019-05-26T11:01:04.921Z,21.20
2019-05-26T11:03:31.091Z,20.90
2019-05-26T11:05:57.594Z,21.60
2019-05-26T11:08:23.767Z,21.20
2019-05-26T11:10:49.954Z,21.10
2019-05-26T11:13:16.179Z,21.00
2019-05-26T11:15:44.340Z,20.90
2019-05-26T11:18:10.538Z,20.90
2019-05-26T11:20:36.918Z,21.50
2019-05-26T11:23:03.288Z,22.10
2019-05-26T11:25:29.762Z,22.20
2019-05-26T11:27:55.989Z,21.80
2019-05-26T11:30:22.147Z,21.10
2019-05-26T11:32:48.617Z,21.20
2019-05-26T11:35:14.986Z,21.10
2019-05-26T11:37:41.168Z,21.20
2019-05-26T11:40:07.545Z,21.10
2019-05-26T11:42:34.074Z,20.90
2019-05-26T11:45:00.242Z,21.40
2019-05-26T11:47:26.418Z,21.00
2019-05-26T11:49:52.632Z,21.30
2019-05-26T11:52:20.356Z,21.10
2019-05-26T11:54:46.687Z,21.30
2019-05-26T11:57:13.340Z,21.20
2019-05-26T11:59:39.526Z,21.00
2019-05-26T12:02:05.787Z,20.40
2019-05-26T12:04:31.993Z,20.40
2019-05-26T12:06:58.169Z,20.30
2019-05-26T12:09:24.454Z,19.90
2019-05-26T12:11:50.671Z,20.10
2019-05-26T12:14:16.836Z,20.20
2019-05-26T12:16:43.010Z,20.10
2019-05-26T12:19:09.459Z,19.80
2019-05-26T12:21:35.626Z,19.70
2019-05-26T12:24:01.807Z,19.80
2019-05-26T12:26:28.211Z,19.70
2019-05-26T12:28:54.391Z,19.60
2019-05-26T12:31:20.567Z,19.40
2019-05-26T12:33:46.770Z,19.30
2019-05-26T12:36:12.943Z,19.20
2019-05-26T12:38:41.027Z,19.30
2019-05-26T12:41:07.558Z,19.40
2019-05-26T12:43:33.843Z,19.20
2019-05-26T12:46:00.015Z,19.40
2019-05-26T12:48:26.324Z,19.40
2019-05-26T12:50:52.591Z,19.40
2019-05-26T12:53:18.906Z,19.30
2019-05-26T12:55:45.105Z,19.40
2019-05-26T12:58:11.580Z,19.20
2019-05-26T13:00:48.106Z,19.60
2019-05-26T13:03:06.051Z,19.50
2019-05-26T13:05:32.164Z,19.40
2019-05-26T13:07:58.402Z,19.80
2019-05-26T13:10:24.567Z,19.60
2019-05-26T13:12:50.949Z,19.40
2019-05-26T13:15:17.425Z,19.30
2019-05-26T13:17:43.634Z,19.20
2019-05-26T13:20:11.812Z,19.20
2019-05-26T13:22:38.545Z,19.40
2019-05-26T13:25:06.102Z,19.70
2019-05-26T13:27:32.346Z,19.80
2019-05-26T13:29:58.527Z,19.70
2019-05-26T13:32:24.990Z,19.80
2019-05-26T13:34:51.167Z,19.40
2019-05-26T13:37:17.354Z,19.30
2019-05-26T13:39:43.555Z,19.40
2019-05-26T13:42:09.792Z,19.40
2019-05-26T13:44:35.906Z,19.40
2019-05-26T13:47:02.114Z,19.60
2019-05-26T13:49:28.294Z,19.50
2019-05-26T13:51:54.474Z,19.60
2019-05-26T13:54:20.670Z,19.50
2019-05-26T13:56:46.849Z,19.70
2019-05-26T13:59:13.922Z,19.90
2019-05-26T14:01:40.329Z,20.10
2019-05-26T14:04:06.707Z,20.10
2019-05-26T14:06:32.979Z,20.20
2019-05-26T14:09:02.052Z,20.50
2019-05-26T14:11:27.169Z,20.60
2019-05-26T14:13:53.347Z,20.80
2019-05-26T14:16:20.044Z,21.20
2019-05-26T14:18:46.326Z,21.20
2019-05-26T14:21:12.499Z,20.90
2019-05-26T14:23:38.843Z,20.50
2019-05-26T14:26:05.127Z,21.40
2019-05-26T14:28:31.312Z,21.30
2019-05-26T14:30:57.510Z,21.20
2019-05-26T14:33:23.686Z,21.60
2019-05-26T14:35:49.861Z,21.40
2019-05-26T14:38:16.066Z,20.40
2019-05-26T14:40:42.755Z,20.10
2019-05-26T14:43:08.922Z,20.80
2019-05-26T14:45:35.335Z,21.20
2019-05-26T14:48:01.510Z,21.60
2019-05-26T14:50:27.685Z,21.10
2019-05-26T14:52:54.214Z,21.10
2019-05-26T14:55:20.405Z,21.70
2019-05-26T14:57:46.673Z,21.60
2019-05-26T15:00:14.467Z,21.70
2019-05-26T15:02:40.741Z,22.00
2019-05-26T15:05:07.114Z,22.30
2019-05-26T15:07:33.748Z,22.50
2019-05-26T15:09:59.922Z,21.70
2019-05-26T15:12:26.094Z,21.00
2019-05-26T15:14:52.402Z,20.90
2019-05-26T15:17:18.589Z,21.20
2019-05-26T15:19:44.754Z,21.30
2019-05-26T15:22:10.959Z,21.10
2019-05-26T15:24:37.222Z,22.20
2019-05-26T15:27:03.401Z,22.90
2019-05-26T15:29:29.598Z,23.90
2019-05-26T15:31:55.777Z,24.80
2019-05-26T15:34:21.946Z,24.30
2019-05-26T15:36:48.244Z,22.70
2019-05-26T15:39:14.794Z,23.00
2019-05-26T15:41:40.963Z,21.80
2019-05-26T15:44:07.164Z,22.30
2019-05-26T15:46:33.365Z,22.20
2019-05-26T15:48:59.731Z,22.00
2019-05-26T15:51:25.930Z,21.90
2019-05-26T15:53:52.098Z,22.80
2019-05-26T15:56:18.271Z,23.70
2019-05-26T15:58:44.609Z,23.70
2019-05-26T16:01:11.370Z,23.90
2019-05-26T16:03:37.671Z,23.50
2019-05-26T16:06:04.108Z,23.50
2019-05-26T16:08:30.286Z,23.30
2019-05-26T16:10:56.557Z,22.80
2019-05-26T16:13:22.765Z,22.20
2019-05-26T16:15:48.939Z,21.80
2019-05-26T16:18:15.107Z,22.70
2019-05-26T16:20:41.303Z,22.80
2019-05-26T16:23:08.898Z,22.10
2019-05-26T16:25:35.371Z,22.00
2019-05-26T16:28:01.563Z,23.50
2019-05-26T16:30:27.854Z,24.50
2019-05-26T16:32:54.038Z,24.40
2019-05-26T16:35:20.318Z,23.10
2019-05-26T16:37:46.500Z,22.80
2019-05-26T16:40:12.874Z,22.30
2019-05-26T16:42:39.184Z,22.10
2019-05-26T16:45:05.592Z,22.00
2019-05-26T16:47:31.797Z,21.90
2019-05-26T16:49:58.011Z,21.80
2019-05-26T16:52:24.182Z,20.60
2019-05-26T16:54:50.378Z,20.00
2019-05-26T16:57:16.579Z,20.70
2019-05-26T16:59:42.874Z,20.90
2019-05-26T17:02:09.639Z,20.30
2019-05-26T17:04:35.936Z,20.70
2019-05-26T17:07:02.114Z,21.70
2019-05-26T17:09:28.282Z,21.80
2019-05-26T17:11:54.491Z,21.00
2019-05-26T17:14:20.662Z,20.10
2019-05-26T17:16:47.153Z,19.90
2019-05-26T17:19:13.401Z,19.10
2019-05-26T17:21:39.536Z,19.30
2019-05-26T17:24:05.722Z,19.50
2019-05-26T17:26:31.918Z,19.50
2019-05-26T17:28:58.094Z,19.40
2019-05-26T17:31:24.372Z,19.20
2019-05-26T17:33:50.674Z,19.00
2019-05-26T17:36:16.892Z,19.10
2019-05-26T17:38:43.038Z,19.10
2019-05-26T17:41:09.236Z,18.70
2019-05-26T17:43:35.407Z,18.40
2019-05-26T17:46:01.580Z,18.10
2019-05-26T17:48:27.844Z,18.20
2019-05-26T17:50:54.030Z,18.20
2019-05-26T17:53:20.198Z,18.00
2019-05-26T17:55:46.517Z,18.20
2019-05-26T17:58:12.704Z,18.10
2019-05-26T18:00:38.984Z,17.90
2019-05-26T18:03:06.752Z,17.90
2019-05-26T18:05:33.350Z,18.00
2019-05-26T18:07:59.530Z,17.70
2019-05-26T18:10:26.131Z,17.80
2019-05-26T18:12:52.407Z,17.90
2019-05-26T18:15:18.798Z,17.90
2019-05-26T18:17:47.470Z,17.90
2019-05-26T18:20:13.311Z,17.80
2019-05-26T18:22:39.484Z,17.70
2019-05-26T18:25:06.493Z,17.70
2019-05-26T18:27:32.666Z,17.70
2019-05-26T18:29:58.850Z,17.90
2019-05-26T18:32:25.058Z,17.60
2019-05-26T18:34:51.227Z,17.50
2019-05-26T18:37:17.709Z,17.50
2019-05-26T18:39:43.922Z,17.30
2019-05-26T18:42:10.102Z,17.10
2019-05-26T18:44:36.378Z,16.70
2019-05-26T18:47:03.246Z,16.40
2019-05-26T18:49:29.419Z,16.20
2019-05-26T18:51:55.595Z,16.10
2019-05-26T18:54:21.798Z,16.00
2019-05-26T18:56:47.970Z,16.00
2019-05-26T18:59:14.146Z,16.00
2019-05-26T19:01:40.545Z,16.00
2019-05-26T19:04:07.064Z,15.90
2019-05-26T19:06:33.237Z,16.00
2019-05-26T19:08:59.607Z,16.10
2019-05-26T19:11:25.982Z,16.10
2019-05-26T19:13:52.170Z,15.90
2019-05-26T19:16:18.532Z,16.00
2019-05-26T19:18:44.686Z,15.90
2019-05-26T19:21:10.858Z,15.80
2019-05-26T19:23:37.170Z,15.70
2019-05-26T19:26:03.403Z,15.80
2019-05-26T19:28:29.517Z,15.70
2019-05-26T19:30:55.820Z,15.80
2019-05-26T19:33:21.986Z,15.80
2019-05-26T19:35:48.266Z,15.70
2019-05-26T19:38:14.641Z,15.70
2019-05-26T19:40:40.783Z,15.60
2019-05-26T19:43:07.092Z,15.70
2019-05-26T19:45:33.448Z,15.70
2019-05-26T19:47:59.627Z,15.60
2019-05-26T19:50:25.806Z,15.60
2019-05-26T19:52:52.008Z,15.70
2019-05-26T19:55:18.299Z,15.70
2019-05-26T19:57:44.451Z,15.70
2019-05-26T20:00:13.062Z,15.80
2019-05-26T20:02:39.434Z,15.70
2019-05-26T20:05:07.137Z,15.70
2019-05-26T20:07:33.684Z,15.70
2019-05-26T20:09:59.901Z,15.70
2019-05-26T20:12:26.042Z,15.60
2019-05-26T20:14:52.238Z,15.70
2019-05-26T20:17:18.415Z,15.70
2019-05-26T20:19:44.593Z,15.70
2019-05-26T20:22:10.818Z,15.70
2019-05-26T20:24:37.166Z,15.70
2019-05-26T20:27:03.484Z,15.70
2019-05-26T20:29:29.774Z,15.80
2019-05-26T20:31:55.946Z,15.80
2019-05-26T20:34:22.128Z,15.60
2019-05-26T20:36:48.528Z,15.60
2019-05-26T20:39:14.693Z,15.70
2019-05-26T20:41:40.884Z,15.60
2019-05-26T20:44:07.088Z,15.60
2019-05-26T20:46:33.260Z,15.70
2019-05-26T20:48:59.430Z,15.60
2019-05-26T20:51:25.641Z,15.50
2019-05-26T20:53:51.815Z,15.60
2019-05-26T20:56:18.061Z,15.60
2019-05-26T20:58:44.248Z,15.60
2019-05-26T21:01:10.426Z,15.50
2019-05-26T21:03:36.603Z,15.50
2019-05-26T21:06:04.599Z,15.50
2019-05-26T21:08:30.865Z,15.50
2019-05-26T21:10:57.043Z,15.40
2019-05-26T21:13:23.445Z,15.40
2019-05-26T21:15:49.847Z,15.30
2019-05-26T21:18:16.027Z,15.40
2019-05-26T21:20:43.360Z,15.40
2019-05-26T21:23:09.559Z,15.30
2019-05-26T21:25:35.754Z,15.30
2019-05-26T21:28:03.850Z,15.30
2019-05-26T21:30:30.029Z,15.20
2019-05-26T21:32:56.210Z,15.30
2019-05-26T21:35:22.410Z,15.10
2019-05-26T21:37:48.631Z,15.30
2019-05-26T21:40:14.818Z,15.30
2019-05-26T21:42:41.018Z,15.30
2019-05-26T21:45:07.605Z,15.30
2019-05-26T21:47:33.834Z,15.30
2019-05-26T21:50:00.178Z,15.30
2019-05-26T21:52:26.342Z,15.40
2019-05-26T21:54:52.823Z,15.20
2019-05-26T21:57:19.027Z,15.30
2019-05-26T21:59:45.299Z,15.30
2019-05-26T22:02:11.578Z,15.30
2019-05-26T22:04:37.838Z,15.30
2019-05-26T22:07:05.402Z,15.30
2019-05-26T22:09:32.079Z,15.20
2019-05-26T22:11:58.466Z,15.10
2019-05-26T22:14:24.635Z,15.00
2019-05-26T22:16:50.817Z,15.00
2019-05-26T22:19:17.127Z,14.90
2019-05-26T22:21:43.401Z,15.00
2019-05-26T22:24:09.711Z,15.10
2019-05-26T22:26:35.894Z,15.00
2019-05-26T22:29:02.077Z,15.00
2019-05-26T22:31:28.240Z,15.00
2019-05-26T22:33:54.435Z,15.00
2019-05-26T22:36:20.764Z,14.90
2019-05-26T22:38:47.050Z,15.00
2019-05-26T22:41:13.254Z,14.90
2019-05-26T22:43:39.430Z,14.90
2019-05-26T22:46:05.610Z,14.90
2019-05-26T22:48:32.316Z,14.90
2019-05-26T22:50:58.578Z,14.90
2019-05-26T22:53:24.865Z,14.90
2019-05-26T22:55:51.071Z,14.90
2019-05-26T22:58:17.255Z,14.90
2019-05-26T23:00:43.423Z,14.90
2019-05-26T23:03:09.722Z,14.90
2019-05-26T23:05:35.910Z,14.80
2019-05-26T23:08:02.752Z,14.90
2019-05-26T23:10:28.946Z,14.90
2019-05-26T23:12:55.132Z,14.80
2019-05-26T23:15:21.295Z,14.80
2019-05-26T23:17:47.730Z,14.70
2019-05-26T23:20:13.930Z,14.80
2019-05-26T23:22:40.112Z,14.70
2019-05-26T23:25:06.407Z,14.60
2019-05-26T23:27:32.578Z,14.50
2019-05-26T23:29:58.758Z,14.40
2019-05-26T23:32:25.338Z,14.40
2019-05-26T23:34:51.526Z,14.50
2019-05-26T23:37:17.699Z,14.30
2019-05-26T23:39:44.003Z,14.30
2019-05-26T23:42:10.179Z,14.40
2019-05-26T23:44:36.346Z,14.30
2019-05-26T23:47:02.547Z,14.40
2019-05-26T23:49:28.733Z,14.30
2019-05-26T23:51:55.040Z,14.40
2019-05-26T23:54:21.381Z,14.30
2019-05-26T23:56:47.555Z,14.30
2019-05-26T23:59:13.847Z,14.30
